sensor_id;sensor_type;location;lat;lon;timestamp;P1;durP1;ratioP1;P2;durP2;ratioP2
59434;SDS011;45241;49.768;8.636;2023-04-25T00:01:47;9.13;;;6.38;;
59434;SDS011;45241;49.768;8.636;2023-04-25T00:04:13;8.32;;;6.35;;
59434;SDS011;45241;49.768;8.636;2023-04-25T00:06:38;9.38;;;6.32;;
59434;SDS011;45241;49.768;8.636;2023-04-25T00:09:04;9.45;;;6.47;;
59434;SDS011;45241;49.768;8.636;2023-04-25T00:11:34;7.95;;;6.32;;
59434;SDS011;45241;49.768;8.636;2023-04-25T00:14:00;7.65;;;6.13;;
59434;SDS011;45241;49.768;8.636;2023-04-25T00:16:27;7.68;;;5.68;;
59434;SDS011;45241;49.768;8.636;2023-04-25T00:18:54;8.52;;;5.38;;
59434;SDS011;45241;49.768;8.636;2023-04-25T00:21:19;7.32;;;5.50;;
59434;SDS011;45241;49.768;8.636;2023-04-25T00:23:45;7.22;;;5.70;;
59434;SDS011;45241;49.768;8.636;2023-04-25T00:26:11;6.53;;;5.20;;
59434;SDS011;45241;49.768;8.636;2023-04-25T00:28:37;6.40;;;4.78;;
59434;SDS011;45241;49.768;8.636;2023-04-25T00:31:03;6.88;;;5.25;;
59434;SDS011;45241;49.768;8.636;2023-04-25T00:33:28;6.32;;;5.00;;
59434;SDS011;45241;49.768;8.636;2023-04-25T00:35:54;7.40;;;5.70;;
59434;SDS011;45241;49.768;8.636;2023-04-25T00:38:20;6.97;;;5.43;;
59434;SDS011;45241;49.768;8.636;2023-04-25T00:40:46;6.05;;;5.20;;
59434;SDS011;45241;49.768;8.636;2023-04-25T00:43:12;6.50;;;5.05;;
59434;SDS011;45241;49.768;8.636;2023-04-25T00:45:37;7.20;;;5.60;;
59434;SDS011;45241;49.768;8.636;2023-04-25T00:48:04;8.00;;;5.30;;
59434;SDS011;45241;49.768;8.636;2023-04-25T00:50:30;7.63;;;5.20;;
59434;SDS011;45241;49.768;8.636;2023-04-25T00:52:57;6.45;;;5.18;;
59434;SDS011;45241;49.768;8.636;2023-04-25T00:55:23;6.85;;;5.32;;
59434;SDS011;45241;49.768;8.636;2023-04-25T00:57:48;9.15;;;5.35;;
59434;SDS011;45241;49.768;8.636;2023-04-25T01:00:15;6.97;;;5.03;;
59434;SDS011;45241;49.768;8.636;2023-04-25T01:02:41;7.22;;;4.78;;
59434;SDS011;45241;49.768;8.636;2023-04-25T01:05:07;6.05;;;4.65;;
59434;SDS011;45241;49.768;8.636;2023-04-25T01:07:33;6.13;;;4.90;;
59434;SDS011;45241;49.768;8.636;2023-04-25T01:09:59;6.80;;;4.88;;
59434;SDS011;45241;49.768;8.636;2023-04-25T01:12:24;10.25;;;5.32;;
59434;SDS011;45241;49.768;8.636;2023-04-25T01:14:50;5.30;;;4.80;;
59434;SDS011;45241;49.768;8.636;2023-04-25T01:17:15;6.72;;;5.00;;
59434;SDS011;45241;49.768;8.636;2023-04-25T01:19:43;7.47;;;5.18;;
59434;SDS011;45241;49.768;8.636;2023-04-25T01:22:09;8.55;;;5.13;;
59434;SDS011;45241;49.768;8.636;2023-04-25T01:24:35;8.85;;;4.78;;
59434;SDS011;45241;49.768;8.636;2023-04-25T01:27:01;4.95;;;4.43;;
59434;SDS011;45241;49.768;8.636;2023-04-25T01:29:28;5.57;;;4.45;;
59434;SDS011;45241;49.768;8.636;2023-04-25T01:31:54;6.50;;;4.65;;
59434;SDS011;45241;49.768;8.636;2023-04-25T01:34:20;5.53;;;4.22;;
59434;SDS011;45241;49.768;8.636;2023-04-25T01:36:46;6.10;;;4.80;;
59434;SDS011;45241;49.768;8.636;2023-04-25T01:39:14;6.13;;;5.13;;
59434;SDS011;45241;49.768;8.636;2023-04-25T01:41:40;7.53;;;5.40;;
59434;SDS011;45241;49.768;8.636;2023-04-25T01:44:05;6.28;;;4.70;;
59434;SDS011;45241;49.768;8.636;2023-04-25T01:46:32;7.90;;;4.78;;
59434;SDS011;45241;49.768;8.636;2023-04-25T01:48:58;6.03;;;4.95;;
59434;SDS011;45241;49.768;8.636;2023-04-25T01:51:23;6.03;;;4.97;;
59434;SDS011;45241;49.768;8.636;2023-04-25T01:53:48;7.53;;;5.03;;
59434;SDS011;45241;49.768;8.636;2023-04-25T01:56:14;6.60;;;5.00;;
59434;SDS011;45241;49.768;8.636;2023-04-25T01:58:40;5.90;;;4.63;;
59434;SDS011;45241;49.768;8.636;2023-04-25T02:01:05;6.82;;;5.05;;
59434;SDS011;45241;49.768;8.636;2023-04-25T02:03:31;6.22;;;4.85;;
59434;SDS011;45241;49.768;8.636;2023-04-25T02:05:57;6.10;;;5.18;;
59434;SDS011;45241;49.768;8.636;2023-04-25T02:08:22;7.05;;;5.10;;
59434;SDS011;45241;49.768;8.636;2023-04-25T02:10:48;9.38;;;5.93;;
59434;SDS011;45241;49.768;8.636;2023-04-25T02:13:13;7.00;;;5.95;;
59434;SDS011;45241;49.768;8.636;2023-04-25T02:15:38;6.78;;;5.30;;
59434;SDS011;45241;49.768;8.636;2023-04-25T02:18:04;7.45;;;5.55;;
59434;SDS011;45241;49.768;8.636;2023-04-25T02:20:31;8.00;;;5.82;;
59434;SDS011;45241;49.768;8.636;2023-04-25T02:22:57;8.18;;;6.50;;
59434;SDS011;45241;49.768;8.636;2023-04-25T02:25:23;7.55;;;6.13;;
59434;SDS011;45241;49.768;8.636;2023-04-25T02:27:48;7.57;;;6.20;;
59434;SDS011;45241;49.768;8.636;2023-04-25T02:30:13;7.80;;;6.07;;
59434;SDS011;45241;49.768;8.636;2023-04-25T02:32:39;8.35;;;6.47;;
59434;SDS011;45241;49.768;8.636;2023-04-25T02:35:05;8.00;;;6.28;;
59434;SDS011;45241;49.768;8.636;2023-04-25T02:37:32;9.68;;;7.03;;
59434;SDS011;45241;49.768;8.636;2023-04-25T02:39:58;7.75;;;6.55;;
59434;SDS011;45241;49.768;8.636;2023-04-25T02:42:24;8.88;;;7.00;;
59434;SDS011;45241;49.768;8.636;2023-04-25T02:44:49;9.43;;;7.15;;
59434;SDS011;45241;49.768;8.636;2023-04-25T02:47:15;9.55;;;7.10;;
59434;SDS011;45241;49.768;8.636;2023-04-25T02:49:40;10.52;;;7.50;;
59434;SDS011;45241;49.768;8.636;2023-04-25T02:52:05;8.50;;;6.90;;
59434;SDS011;45241;49.768;8.636;2023-04-25T02:54:31;9.38;;;7.05;;
59434;SDS011;45241;49.768;8.636;2023-04-25T02:56:56;10.27;;;6.43;;
59434;SDS011;45241;49.768;8.636;2023-04-25T02:59:22;9.30;;;6.57;;
59434;SDS011;45241;49.768;8.636;2023-04-25T03:01:47;10.40;;;7.28;;
59434;SDS011;45241;49.768;8.636;2023-04-25T03:04:12;8.50;;;6.93;;
59434;SDS011;45241;49.768;8.636;2023-04-25T03:06:38;9.60;;;7.43;;
59434;SDS011;45241;49.768;8.636;2023-04-25T03:09:03;9.38;;;7.15;;
59434;SDS011;45241;49.768;8.636;2023-04-25T03:11:28;11.07;;;7.40;;
59434;SDS011;45241;49.768;8.636;2023-04-25T03:13:54;9.57;;;7.20;;
59434;SDS011;45241;49.768;8.636;2023-04-25T03:16:19;8.30;;;6.70;;
59434;SDS011;45241;49.768;8.636;2023-04-25T03:18:45;9.10;;;7.38;;
59434;SDS011;45241;49.768;8.636;2023-04-25T03:21:10;10.25;;;7.70;;
59434;SDS011;45241;49.768;8.636;2023-04-25T03:23:35;10.25;;;7.28;;
59434;SDS011;45241;49.768;8.636;2023-04-25T03:26:01;9.80;;;7.03;;
59434;SDS011;45241;49.768;8.636;2023-04-25T03:28:26;9.05;;;6.93;;
59434;SDS011;45241;49.768;8.636;2023-04-25T03:30:51;12.38;;;7.15;;
59434;SDS011;45241;49.768;8.636;2023-04-25T03:33:16;10.20;;;8.02;;
59434;SDS011;45241;49.768;8.636;2023-04-25T03:35:42;9.90;;;7.28;;
59434;SDS011;45241;49.768;8.636;2023-04-25T03:38:07;9.77;;;7.30;;
59434;SDS011;45241;49.768;8.636;2023-04-25T03:40:33;9.48;;;7.22;;
59434;SDS011;45241;49.768;8.636;2023-04-25T03:42:58;10.07;;;7.38;;
59434;SDS011;45241;49.768;8.636;2023-04-25T03:45:24;9.23;;;7.72;;
59434;SDS011;45241;49.768;8.636;2023-04-25T03:47:49;9.73;;;7.53;;
59434;SDS011;45241;49.768;8.636;2023-04-25T03:50:15;9.35;;;7.05;;
59434;SDS011;45241;49.768;8.636;2023-04-25T03:52:40;11.05;;;7.80;;
59434;SDS011;45241;49.768;8.636;2023-04-25T03:55:05;12.20;;;7.53;;
59434;SDS011;45241;49.768;8.636;2023-04-25T03:57:31;10.02;;;7.20;;
59434;SDS011;45241;49.768;8.636;2023-04-25T03:59:57;12.35;;;8.02;;
59434;SDS011;45241;49.768;8.636;2023-04-25T04:02:22;9.65;;;7.10;;
59434;SDS011;45241;49.768;8.636;2023-04-25T04:04:47;9.82;;;7.63;;
59434;SDS011;45241;49.768;8.636;2023-04-25T04:07:12;10.23;;;7.53;;
59434;SDS011;45241;49.768;8.636;2023-04-25T04:09:38;9.63;;;7.43;;
59434;SDS011;45241;49.768;8.636;2023-04-25T04:12:03;11.18;;;8.18;;
59434;SDS011;45241;49.768;8.636;2023-04-25T04:14:28;11.43;;;8.18;;
59434;SDS011;45241;49.768;8.636;2023-04-25T04:16:54;10.98;;;7.75;;
59434;SDS011;45241;49.768;8.636;2023-04-25T04:19:19;10.65;;;8.02;;
59434;SDS011;45241;49.768;8.636;2023-04-25T04:21:45;10.30;;;7.68;;
59434;SDS011;45241;49.768;8.636;2023-04-25T04:24:10;10.35;;;8.25;;
59434;SDS011;45241;49.768;8.636;2023-04-25T04:26:36;10.13;;;8.18;;
59434;SDS011;45241;49.768;8.636;2023-04-25T04:29:02;11.05;;;8.25;;
59434;SDS011;45241;49.768;8.636;2023-04-25T04:31:27;11.63;;;8.30;;
59434;SDS011;45241;49.768;8.636;2023-04-25T04:33:53;10.70;;;8.15;;
59434;SDS011;45241;49.768;8.636;2023-04-25T04:36:18;11.35;;;7.82;;
59434;SDS011;45241;49.768;8.636;2023-04-25T04:38:48;11.45;;;8.57;;
59434;SDS011;45241;49.768;8.636;2023-04-25T04:41:13;10.80;;;7.53;;
59434;SDS011;45241;49.768;8.636;2023-04-25T04:43:39;10.45;;;7.97;;
59434;SDS011;45241;49.768;8.636;2023-04-25T04:46:05;10.50;;;8.07;;
59434;SDS011;45241;49.768;8.636;2023-04-25T04:48:33;10.23;;;7.50;;
59434;SDS011;45241;49.768;8.636;2023-04-25T04:50:59;10.00;;;7.80;;
59434;SDS011;45241;49.768;8.636;2023-04-25T04:53:25;9.90;;;7.72;;
59434;SDS011;45241;49.768;8.636;2023-04-25T04:55:50;11.85;;;8.40;;
59434;SDS011;45241;49.768;8.636;2023-04-25T04:58:16;10.52;;;7.78;;
59434;SDS011;45241;49.768;8.636;2023-04-25T05:00:41;12.30;;;8.23;;
59434;SDS011;45241;49.768;8.636;2023-04-25T05:03:06;10.73;;;7.50;;
59434;SDS011;45241;49.768;8.636;2023-04-25T05:05:32;9.48;;;7.57;;
59434;SDS011;45241;49.768;8.636;2023-04-25T05:07:57;10.80;;;8.27;;
59434;SDS011;45241;49.768;8.636;2023-04-25T05:10:22;11.43;;;8.90;;
59434;SDS011;45241;49.768;8.636;2023-04-25T05:12:48;10.80;;;8.40;;
59434;SDS011;45241;49.768;8.636;2023-04-25T05:15:13;11.75;;;8.60;;
59434;SDS011;45241;49.768;8.636;2023-04-25T05:17:39;11.48;;;8.23;;
59434;SDS011;45241;49.768;8.636;2023-04-25T05:20:05;15.23;;;8.30;;
59434;SDS011;45241;49.768;8.636;2023-04-25T05:22:32;11.45;;;8.80;;
59434;SDS011;45241;49.768;8.636;2023-04-25T05:24:57;12.38;;;8.30;;
59434;SDS011;45241;49.768;8.636;2023-04-25T05:27:24;12.07;;;8.55;;
59434;SDS011;45241;49.768;8.636;2023-04-25T05:29:49;11.15;;;8.50;;
59434;SDS011;45241;49.768;8.636;2023-04-25T05:32:15;15.60;;;8.00;;
59434;SDS011;45241;49.768;8.636;2023-04-25T05:34:40;10.70;;;8.07;;
59434;SDS011;45241;49.768;8.636;2023-04-25T05:37:06;10.65;;;8.07;;
59434;SDS011;45241;49.768;8.636;2023-04-25T05:39:32;12.30;;;8.20;;
59434;SDS011;45241;49.768;8.636;2023-04-25T05:41:57;10.05;;;7.78;;
59434;SDS011;45241;49.768;8.636;2023-04-25T05:44:22;11.45;;;7.68;;
59434;SDS011;45241;49.768;8.636;2023-04-25T05:46:48;14.95;;;8.18;;
59434;SDS011;45241;49.768;8.636;2023-04-25T05:49:13;10.65;;;7.75;;
59434;SDS011;45241;49.768;8.636;2023-04-25T05:51:39;10.57;;;7.50;;
59434;SDS011;45241;49.768;8.636;2023-04-25T05:54:04;11.02;;;7.38;;
59434;SDS011;45241;49.768;8.636;2023-04-25T05:56:30;12.27;;;7.38;;
59434;SDS011;45241;49.768;8.636;2023-04-25T05:58:55;16.90;;;7.35;;
59434;SDS011;45241;49.768;8.636;2023-04-25T06:01:21;11.85;;;6.93;;
59434;SDS011;45241;49.768;8.636;2023-04-25T06:03:47;15.23;;;7.18;;
59434;SDS011;45241;49.768;8.636;2023-04-25T06:06:12;12.77;;;6.90;;
59434;SDS011;45241;49.768;8.636;2023-04-25T06:08:38;16.02;;;7.85;;
59434;SDS011;45241;49.768;8.636;2023-04-25T06:11:03;20.35;;;7.68;;
59434;SDS011;45241;49.768;8.636;2023-04-25T06:13:29;17.88;;;8.10;;
59434;SDS011;45241;49.768;8.636;2023-04-25T06:15:54;14.90;;;7.95;;
59434;SDS011;45241;49.768;8.636;2023-04-25T06:18:20;15.23;;;7.82;;
59434;SDS011;45241;49.768;8.636;2023-04-25T06:20:45;17.73;;;7.47;;
59434;SDS011;45241;49.768;8.636;2023-04-25T06:23:11;15.15;;;8.00;;
59434;SDS011;45241;49.768;8.636;2023-04-25T06:25:36;16.75;;;7.68;;
59434;SDS011;45241;49.768;8.636;2023-04-25T06:28:01;15.50;;;7.32;;
59434;SDS011;45241;49.768;8.636;2023-04-25T06:30:27;15.45;;;7.55;;
59434;SDS011;45241;49.768;8.636;2023-04-25T06:32:52;16.55;;;7.63;;
59434;SDS011;45241;49.768;8.636;2023-04-25T06:35:18;13.60;;;7.63;;
59434;SDS011;45241;49.768;8.636;2023-04-25T06:37:44;18.35;;;7.88;;
59434;SDS011;45241;49.768;8.636;2023-04-25T06:40:09;15.90;;;7.65;;
59434;SDS011;45241;49.768;8.636;2023-04-25T06:42:35;14.32;;;7.95;;
59434;SDS011;45241;49.768;8.636;2023-04-25T06:45:01;17.17;;;7.90;;
59434;SDS011;45241;49.768;8.636;2023-04-25T06:47:26;16.25;;;7.15;;
59434;SDS011;45241;49.768;8.636;2023-04-25T06:49:51;14.07;;;7.43;;
59434;SDS011;45241;49.768;8.636;2023-04-25T06:52:17;17.73;;;8.13;;
59434;SDS011;45241;49.768;8.636;2023-04-25T06:54:43;18.55;;;7.82;;
59434;SDS011;45241;49.768;8.636;2023-04-25T06:57:08;14.50;;;8.00;;
59434;SDS011;45241;49.768;8.636;2023-04-25T06:59:33;13.57;;;6.63;;
59434;SDS011;45241;49.768;8.636;2023-04-25T07:01:59;15.55;;;7.03;;
59434;SDS011;45241;49.768;8.636;2023-04-25T07:04:24;13.05;;;6.82;;
59434;SDS011;45241;49.768;8.636;2023-04-25T07:06:49;14.32;;;6.32;;
59434;SDS011;45241;49.768;8.636;2023-04-25T07:09:15;13.10;;;6.88;;
59434;SDS011;45241;49.768;8.636;2023-04-25T07:11:41;17.25;;;6.03;;
59434;SDS011;45241;49.768;8.636;2023-04-25T07:14:06;14.43;;;6.55;;
59434;SDS011;45241;49.768;8.636;2023-04-25T07:16:32;14.93;;;6.80;;
59434;SDS011;45241;49.768;8.636;2023-04-25T07:18:57;10.15;;;6.20;;
59434;SDS011;45241;49.768;8.636;2023-04-25T07:21:22;12.93;;;6.65;;
59434;SDS011;45241;49.768;8.636;2023-04-25T07:23:47;11.75;;;6.10;;
59434;SDS011;45241;49.768;8.636;2023-04-25T07:26:13;12.85;;;6.07;;
59434;SDS011;45241;49.768;8.636;2023-04-25T07:28:38;11.98;;;5.80;;
59434;SDS011;45241;49.768;8.636;2023-04-25T07:31:03;13.35;;;5.85;;
59434;SDS011;45241;49.768;8.636;2023-04-25T07:33:30;10.02;;;5.40;;
59434;SDS011;45241;49.768;8.636;2023-04-25T07:35:55;8.77;;;5.30;;
59434;SDS011;45241;49.768;8.636;2023-04-25T07:38:21;14.00;;;5.72;;
59434;SDS011;45241;49.768;8.636;2023-04-25T07:40:47;10.90;;;5.93;;
59434;SDS011;45241;49.768;8.636;2023-04-25T07:43:13;11.40;;;5.80;;
59434;SDS011;45241;49.768;8.636;2023-04-25T07:45:41;11.80;;;5.63;;
59434;SDS011;45241;49.768;8.636;2023-04-25T07:48:09;15.38;;;6.45;;
59434;SDS011;45241;49.768;8.636;2023-04-25T07:50:35;13.93;;;6.20;;
59434;SDS011;45241;49.768;8.636;2023-04-25T07:53:01;15.18;;;6.00;;
59434;SDS011;45241;49.768;8.636;2023-04-25T07:55:26;12.13;;;5.90;;
59434;SDS011;45241;49.768;8.636;2023-04-25T07:57:51;10.85;;;6.13;;
59434;SDS011;45241;49.768;8.636;2023-04-25T08:00:17;11.63;;;5.60;;
59434;SDS011;45241;49.768;8.636;2023-04-25T08:02:43;10.35;;;6.07;;
59434;SDS011;45241;49.768;8.636;2023-04-25T08:05:08;14.23;;;6.35;;
59434;SDS011;45241;49.768;8.636;2023-04-25T08:07:36;12.80;;;5.45;;
59434;SDS011;45241;49.768;8.636;2023-04-25T08:10:02;12.57;;;6.07;;
59434;SDS011;45241;49.768;8.636;2023-04-25T08:12:28;14.07;;;5.60;;
59434;SDS011;45241;49.768;8.636;2023-04-25T08:14:53;10.98;;;5.30;;
59434;SDS011;45241;49.768;8.636;2023-04-25T08:17:18;12.10;;;5.47;;
59434;SDS011;45241;49.768;8.636;2023-04-25T08:19:44;11.82;;;5.22;;
59434;SDS011;45241;49.768;8.636;2023-04-25T08:22:09;14.80;;;6.13;;
59434;SDS011;45241;49.768;8.636;2023-04-25T08:24:34;10.80;;;5.68;;
59434;SDS011;45241;49.768;8.636;2023-04-25T08:27:00;12.68;;;6.43;;
59434;SDS011;45241;49.768;8.636;2023-04-25T08:29:25;9.85;;;5.47;;
59434;SDS011;45241;49.768;8.636;2023-04-25T08:31:51;10.93;;;5.35;;
59434;SDS011;45241;49.768;8.636;2023-04-25T08:34:17;12.60;;;5.50;;
59434;SDS011;45241;49.768;8.636;2023-04-25T08:36:43;10.02;;;4.55;;
59434;SDS011;45241;49.768;8.636;2023-04-25T08:39:08;11.73;;;4.90;;
59434;SDS011;45241;49.768;8.636;2023-04-25T08:41:36;11.95;;;5.60;;
59434;SDS011;45241;49.768;8.636;2023-04-25T08:44:02;10.15;;;5.40;;
59434;SDS011;45241;49.768;8.636;2023-04-25T08:46:28;10.88;;;4.95;;
59434;SDS011;45241;49.768;8.636;2023-04-25T08:48:56;11.45;;;4.63;;
59434;SDS011;45241;49.768;8.636;2023-04-25T08:51:25;9.73;;;4.55;;
59434;SDS011;45241;49.768;8.636;2023-04-25T08:53:52;10.02;;;4.70;;
59434;SDS011;45241;49.768;8.636;2023-04-25T08:56:18;10.85;;;4.28;;
59434;SDS011;45241;49.768;8.636;2023-04-25T08:58:50;15.25;;;4.88;;
59434;SDS011;45241;49.768;8.636;2023-04-25T09:01:16;11.82;;;4.38;;
59434;SDS011;45241;49.768;8.636;2023-04-25T09:03:42;6.70;;;3.97;;
59434;SDS011;45241;49.768;8.636;2023-04-25T09:06:09;9.00;;;3.80;;
59434;SDS011;45241;49.768;8.636;2023-04-25T09:08:36;11.35;;;4.30;;
59434;SDS011;45241;49.768;8.636;2023-04-25T09:11:03;13.05;;;4.80;;
59434;SDS011;45241;49.768;8.636;2023-04-25T09:13:28;10.77;;;4.80;;
59434;SDS011;45241;49.768;8.636;2023-04-25T09:15:55;10.27;;;4.63;;
59434;SDS011;45241;49.768;8.636;2023-04-25T09:18:22;8.05;;;3.95;;
59434;SDS011;45241;49.768;8.636;2023-04-25T09:20:52;8.20;;;3.88;;
59434;SDS011;45241;49.768;8.636;2023-04-25T09:23:21;7.90;;;3.65;;
59434;SDS011;45241;49.768;8.636;2023-04-25T09:25:48;8.35;;;3.88;;
59434;SDS011;45241;49.768;8.636;2023-04-25T09:28:27;8.00;;;3.08;;
59434;SDS011;45241;49.768;8.636;2023-04-25T09:30:56;6.80;;;3.13;;
59434;SDS011;45241;49.768;8.636;2023-04-25T09:33:28;6.82;;;3.00;;
59434;SDS011;45241;49.768;8.636;2023-04-25T09:35:56;8.80;;;2.85;;
59434;SDS011;45241;49.768;8.636;2023-04-25T09:38:27;8.15;;;3.20;;
59434;SDS011;45241;49.768;8.636;2023-04-25T09:40:55;8.52;;;3.30;;
59434;SDS011;45241;49.768;8.636;2023-04-25T09:45:49;8.18;;;2.97;;
59434;SDS011;45241;49.768;8.636;2023-04-25T09:48:17;9.52;;;3.25;;
59434;SDS011;45241;49.768;8.636;2023-04-25T09:50:44;5.93;;;2.85;;
59434;SDS011;45241;49.768;8.636;2023-04-25T09:53:10;6.38;;;3.00;;
59434;SDS011;45241;49.768;8.636;2023-04-25T09:55:35;5.60;;;2.47;;
59434;SDS011;45241;49.768;8.636;2023-04-25T09:58:04;4.40;;;2.42;;
59434;SDS011;45241;49.768;8.636;2023-04-25T10:00:31;6.80;;;2.75;;
59434;SDS011;45241;49.768;8.636;2023-04-25T10:02:58;9.25;;;2.85;;
59434;SDS011;45241;49.768;8.636;2023-04-25T10:05:26;4.75;;;2.55;;
59434;SDS011;45241;49.768;8.636;2023-04-25T10:07:53;5.63;;;2.50;;
59434;SDS011;45241;49.768;8.636;2023-04-25T10:10:20;5.00;;;2.40;;
59434;SDS011;45241;49.768;8.636;2023-04-25T10:12:50;5.78;;;2.33;;
59434;SDS011;45241;49.768;8.636;2023-04-25T10:15:16;5.57;;;2.40;;
59434;SDS011;45241;49.768;8.636;2023-04-25T10:17:42;4.40;;;2.30;;
59434;SDS011;45241;49.768;8.636;2023-04-25T10:20:08;5.38;;;2.65;;
59434;SDS011;45241;49.768;8.636;2023-04-25T10:22:36;4.88;;;2.35;;
59434;SDS011;45241;49.768;8.636;2023-04-25T10:25:04;6.50;;;2.53;;
59434;SDS011;45241;49.768;8.636;2023-04-25T10:27:31;5.93;;;2.30;;
59434;SDS011;45241;49.768;8.636;2023-04-25T10:30:15;4.47;;;2.30;;
59434;SDS011;45241;49.768;8.636;2023-04-25T10:32:44;7.03;;;2.63;;
59434;SDS011;45241;49.768;8.636;2023-04-25T10:35:17;5.30;;;2.63;;
59434;SDS011;45241;49.768;8.636;2023-04-25T10:41:03;5.40;;;2.50;;
59434;SDS011;45241;49.768;8.636;2023-04-25T10:43:34;6.65;;;2.35;;
59434;SDS011;45241;49.768;8.636;2023-04-25T10:46:13;4.07;;;2.70;;
59434;SDS011;45241;49.768;8.636;2023-04-25T10:48:51;5.18;;;2.65;;
59434;SDS011;45241;49.768;8.636;2023-04-25T10:51:24;7.50;;;3.30;;
59434;SDS011;45241;49.768;8.636;2023-04-25T10:56:19;7.20;;;2.88;;
59434;SDS011;45241;49.768;8.636;2023-04-25T10:58:49;4.65;;;2.95;;
59434;SDS011;45241;49.768;8.636;2023-04-25T11:01:15;7.05;;;3.30;;
59434;SDS011;45241;49.768;8.636;2023-04-25T11:03:44;6.03;;;3.00;;
59434;SDS011;45241;49.768;8.636;2023-04-25T11:08:51;4.78;;;3.00;;
59434;SDS011;45241;49.768;8.636;2023-04-25T11:11:17;7.05;;;3.33;;
59434;SDS011;45241;49.768;8.636;2023-04-25T11:13:43;8.55;;;3.58;;
59434;SDS011;45241;49.768;8.636;2023-04-25T11:16:09;10.50;;;3.25;;
59434;SDS011;45241;49.768;8.636;2023-04-25T11:18:35;8.05;;;3.78;;
59434;SDS011;45241;49.768;8.636;2023-04-25T11:21:00;7.70;;;3.55;;
59434;SDS011;45241;49.768;8.636;2023-04-25T11:23:27;6.75;;;3.67;;
59434;SDS011;45241;49.768;8.636;2023-04-25T11:25:55;8.82;;;3.65;;
59434;SDS011;45241;49.768;8.636;2023-04-25T11:28:20;4.55;;;3.45;;
59434;SDS011;45241;49.768;8.636;2023-04-25T11:30:50;8.32;;;4.30;;
59434;SDS011;45241;49.768;8.636;2023-04-25T11:33:15;5.57;;;3.63;;
59434;SDS011;45241;49.768;8.636;2023-04-25T11:35:41;8.88;;;4.60;;
59434;SDS011;45241;49.768;8.636;2023-04-25T11:38:06;7.97;;;4.10;;
59434;SDS011;45241;49.768;8.636;2023-04-25T11:40:32;7.90;;;4.22;;
59434;SDS011;45241;49.768;8.636;2023-04-25T11:42:59;9.43;;;4.20;;
59434;SDS011;45241;49.768;8.636;2023-04-25T11:45:25;6.03;;;4.05;;
59434;SDS011;45241;49.768;8.636;2023-04-25T11:47:51;8.38;;;4.10;;
59434;SDS011;45241;49.768;8.636;2023-04-25T11:50:16;6.95;;;4.15;;
59434;SDS011;45241;49.768;8.636;2023-04-25T11:52:42;7.50;;;4.50;;
59434;SDS011;45241;49.768;8.636;2023-04-25T11:57:40;6.82;;;4.00;;
59434;SDS011;45241;49.768;8.636;2023-04-25T12:02:43;6.60;;;4.30;;
59434;SDS011;45241;49.768;8.636;2023-04-25T12:05:10;6.45;;;4.32;;
59434;SDS011;45241;49.768;8.636;2023-04-25T12:07:36;7.82;;;3.85;;
59434;SDS011;45241;49.768;8.636;2023-04-25T12:12:33;9.65;;;4.25;;
59434;SDS011;45241;49.768;8.636;2023-04-25T12:15:09;6.78;;;4.20;;
59434;SDS011;45241;49.768;8.636;2023-04-25T12:17:35;10.02;;;4.25;;
59434;SDS011;45241;49.768;8.636;2023-04-25T12:20:09;5.68;;;3.47;;
59434;SDS011;45241;49.768;8.636;2023-04-25T12:22:37;7.57;;;4.43;;
59434;SDS011;45241;49.768;8.636;2023-04-25T12:25:03;9.05;;;4.35;;
59434;SDS011;45241;49.768;8.636;2023-04-25T12:27:33;7.30;;;3.92;;
59434;SDS011;45241;49.768;8.636;2023-04-25T12:29:58;8.60;;;4.32;;
59434;SDS011;45241;49.768;8.636;2023-04-25T12:32:24;7.95;;;3.85;;
59434;SDS011;45241;49.768;8.636;2023-04-25T12:34:51;8.85;;;4.18;;
59434;SDS011;45241;49.768;8.636;2023-04-25T12:37:16;7.30;;;4.25;;
59434;SDS011;45241;49.768;8.636;2023-04-25T12:39:42;9.50;;;5.03;;
59434;SDS011;45241;49.768;8.636;2023-04-25T12:42:07;11.07;;;4.25;;
59434;SDS011;45241;49.768;8.636;2023-04-25T12:44:33;8.70;;;4.93;;
59434;SDS011;45241;49.768;8.636;2023-04-25T12:46:58;9.65;;;4.90;;
59434;SDS011;45241;49.768;8.636;2023-04-25T12:49:24;7.90;;;4.95;;
59434;SDS011;45241;49.768;8.636;2023-04-25T12:51:50;8.73;;;4.20;;
59434;SDS011;45241;49.768;8.636;2023-04-25T12:54:16;11.70;;;4.07;;
59434;SDS011;45241;49.768;8.636;2023-04-25T12:56:42;10.27;;;4.10;;
59434;SDS011;45241;49.768;8.636;2023-04-25T12:59:07;9.77;;;4.18;;
59434;SDS011;45241;49.768;8.636;2023-04-25T13:01:32;10.60;;;4.40;;
59434;SDS011;45241;49.768;8.636;2023-04-25T13:03:58;8.35;;;3.92;;
59434;SDS011;45241;49.768;8.636;2023-04-25T13:06:23;7.00;;;3.97;;
59434;SDS011;45241;49.768;8.636;2023-04-25T13:08:49;7.05;;;3.90;;
59434;SDS011;45241;49.768;8.636;2023-04-25T13:11:14;8.30;;;3.80;;
59434;SDS011;45241;49.768;8.636;2023-04-25T13:13:40;7.65;;;3.60;;
59434;SDS011;45241;49.768;8.636;2023-04-25T13:16:06;7.78;;;3.42;;
59434;SDS011;45241;49.768;8.636;2023-04-25T13:18:32;8.23;;;3.55;;
59434;SDS011;45241;49.768;8.636;2023-04-25T13:20:58;6.40;;;3.63;;
59434;SDS011;45241;49.768;8.636;2023-04-25T13:23:28;9.57;;;3.90;;
59434;SDS011;45241;49.768;8.636;2023-04-25T13:25:54;6.57;;;3.03;;
59434;SDS011;45241;49.768;8.636;2023-04-25T13:28:22;5.07;;;2.58;;
59434;SDS011;45241;49.768;8.636;2023-04-25T13:30:48;6.03;;;3.20;;
59434;SDS011;45241;49.768;8.636;2023-04-25T13:33:14;6.95;;;3.35;;
59434;SDS011;45241;49.768;8.636;2023-04-25T13:35:40;7.90;;;3.35;;
59434;SDS011;45241;49.768;8.636;2023-04-25T13:38:06;7.80;;;3.40;;
59434;SDS011;45241;49.768;8.636;2023-04-25T13:40:32;10.40;;;3.10;;
59434;SDS011;45241;49.768;8.636;2023-04-25T13:42:57;8.07;;;2.95;;
59434;SDS011;45241;49.768;8.636;2023-04-25T13:45:23;8.18;;;3.05;;
59434;SDS011;45241;49.768;8.636;2023-04-25T13:47:48;7.72;;;3.00;;
59434;SDS011;45241;49.768;8.636;2023-04-25T13:50:14;5.60;;;2.53;;
59434;SDS011;45241;49.768;8.636;2023-04-25T13:52:40;5.65;;;2.70;;
59434;SDS011;45241;49.768;8.636;2023-04-25T13:55:06;8.75;;;3.17;;
59434;SDS011;45241;49.768;8.636;2023-04-25T13:57:33;5.63;;;2.72;;
59434;SDS011;45241;49.768;8.636;2023-04-25T13:59:59;6.20;;;2.90;;
59434;SDS011;45241;49.768;8.636;2023-04-25T14:02:29;9.85;;;3.42;;
59434;SDS011;45241;49.768;8.636;2023-04-25T14:04:55;7.18;;;2.88;;
59434;SDS011;45241;49.768;8.636;2023-04-25T14:07:20;8.73;;;3.38;;
59434;SDS011;45241;49.768;8.636;2023-04-25T14:09:46;7.32;;;3.38;;
59434;SDS011;45241;49.768;8.636;2023-04-25T14:12:11;8.10;;;3.30;;
59434;SDS011;45241;49.768;8.636;2023-04-25T14:14:36;10.02;;;3.30;;
59434;SDS011;45241;49.768;8.636;2023-04-25T14:17:03;9.35;;;3.70;;
59434;SDS011;45241;49.768;8.636;2023-04-25T14:19:28;11.23;;;3.78;;
59434;SDS011;45241;49.768;8.636;2023-04-25T14:21:54;7.32;;;3.50;;
59434;SDS011;45241;49.768;8.636;2023-04-25T14:24:19;11.35;;;3.30;;
59434;SDS011;45241;49.768;8.636;2023-04-25T14:26:45;6.85;;;3.00;;
59434;SDS011;45241;49.768;8.636;2023-04-25T14:29:10;7.07;;;2.80;;
59434;SDS011;45241;49.768;8.636;2023-04-25T14:31:39;6.55;;;2.90;;
59434;SDS011;45241;49.768;8.636;2023-04-25T14:34:05;10.23;;;2.65;;
59434;SDS011;45241;49.768;8.636;2023-04-25T14:36:31;6.90;;;2.70;;
59434;SDS011;45241;49.768;8.636;2023-04-25T14:38:57;5.80;;;2.45;;
59434;SDS011;45241;49.768;8.636;2023-04-25T14:41:23;5.82;;;2.70;;
59434;SDS011;45241;49.768;8.636;2023-04-25T14:43:49;6.70;;;2.78;;
59434;SDS011;45241;49.768;8.636;2023-04-25T14:46:15;4.80;;;2.45;;
59434;SDS011;45241;49.768;8.636;2023-04-25T14:48:40;8.32;;;2.92;;
59434;SDS011;45241;49.768;8.636;2023-04-25T14:51:06;6.72;;;2.65;;
59434;SDS011;45241;49.768;8.636;2023-04-25T14:53:32;5.47;;;2.33;;
59434;SDS011;45241;49.768;8.636;2023-04-25T14:55:57;5.88;;;2.63;;